Time;durP1;ratioP1;P1;durP2;ratioP2;P2;SDS_P1;SDS_P2;PMS_P1;PMS_P2;Temp;Humidity;BMP_temperature;BMP_pressure;BME280_temperature;BME280_humidity;BME280_pressure;Samples;Min_cycle;Max_cycle;Signal;HPM_P1;HPM_P2
2022/01/31 00:00:23;;;;;;;29.42;8.35;;;3.70;99.90;;;;;;5102564;28;20075;-80
2022/01/31 00:02:49;;;;;;;37.97;7.18;;;3.70;99.90;;;;;;5105047;28;20105;-81
2022/01/31 00:05:15;;;;;;;27.45;6.47;;;3.70;99.90;;;;;;5102991;28;20083;-80
2022/01/31 00:07:41;;;;;;;22.98;7.10;;;3.70;99.90;;;;;;5092162;28;20071;-79
2022/01/31 00:10:10;;;;;;;19.17;6.93;;;3.70;99.90;;;;;;5079410;27;20748;-81
2022/01/31 00:12:49;;;;;;;20.17;6.72;;;3.80;99.90;;;;;;5092992;27;20040;-81
2022/01/31 00:15:15;;;;;;;20.02;5.70;;;3.70;99.90;;;;;;5085254;28;20096;-82
2022/01/31 00:17:41;;;;;;;28.70;8.40;;;3.70;99.90;;;;;;5096717;28;20040;-85
2022/01/31 00:20:07;;;;;;;22.42;6.57;;;3.80;99.90;;;;;;5073231;28;20113;-80
2022/01/31 00:22:33;;;;;;;20.38;7.57;;;3.80;99.90;;;;;;5101795;27;20480;-80
2022/01/31 00:24:58;;;;;;;20.38;7.57;;;3.80;99.90;;;;;;5098204;28;20044;-81
2022/01/31 00:27:24;;;;;;;24.08;6.88;;;3.90;99.90;;;;;;5085955;28;20048;-79
2022/01/31 00:29:50;;;;;;;40.08;10.60;;;3.90;99.90;;;;;;5073646;28;20050;-81
2022/01/31 00:32:15;;;;;;;14.13;5.25;;;3.90;99.90;;;;;;5093470;28;20044;-82
2022/01/31 00:34:41;;;;;;;21.67;7.00;;;3.90;99.90;;;;;;5108370;28;20059;-80
2022/01/31 00:37:06;;;;;;;22.73;7.43;;;3.90;99.90;;;;;;5110584;28;20118;-81
2022/01/31 00:39:35;;;;;;;29.23;7.68;;;3.90;99.90;;;;;;5102492;28;20546;-82
2022/01/31 00:42:02;;;;;;;30.58;8.85;;;3.90;99.90;;;;;;5109274;28;20043;-81
2022/01/31 00:44:38;;;;;;;26.20;8.82;;;4.00;99.90;;;;;;5106787;28;20058;-80
2022/01/31 00:47:15;;;;;;;23.27;7.55;;;3.90;99.90;;;;;;5105515;28;20060;-81
2022/01/31 00:49:48;;;;;;;29.85;8.70;;;4.00;99.90;;;;;;5083400;28;20044;-82
2022/01/31 00:52:14;;;;;;;29.15;10.63;;;4.00;99.90;;;;;;5094376;28;20044;-80
2022/01/31 00:54:39;;;;;;;22.13;8.27;;;3.90;99.90;;;;;;5091243;28;20097;-81
2022/01/31 00:57:05;;;;;;;19.55;6.93;;;3.90;99.90;;;;;;5090393;28;21210;-82
2022/01/31 00:59:30;;;;;;;27.83;11.25;;;3.90;99.90;;;;;;5090710;28;20040;-83
2022/01/31 01:01:56;;;;;;;23.45;10.13;;;3.90;99.90;;;;;;5099771;28;20379;-81
2022/01/31 01:04:21;;;;;;;27.88;10.45;;;3.90;99.90;;;;;;5110980;28;20405;-78
2022/01/31 01:06:47;;;;;;;23.83;8.60;;;3.90;99.90;;;;;;5082078;28;20040;-82
2022/01/31 01:09:13;;;;;;;27.17;10.73;;;3.80;99.90;;;;;;5090388;28;20040;-80
2022/01/31 01:11:39;;;;;;;43.40;14.00;;;3.80;99.90;;;;;;5090969;28;20044;-81
2022/01/31 01:14:04;;;;;;;31.88;11.65;;;3.70;99.90;;;;;;5085808;28;20052;-83
2022/01/31 01:16:31;;;;;;;32.08;12.35;;;3.70;99.90;;;;;;5094192;28;20040;-80
2022/01/31 01:18:56;;;;;;;26.92;12.88;;;3.60;99.90;;;;;;5090847;28;20067;-81
2022/01/31 01:21:22;;;;;;;41.28;12.20;;;3.70;99.90;;;;;;5103562;28;20402;-82
2022/01/31 01:23:47;;;;;;;25.80;11.63;;;3.60;99.90;;;;;;5110783;28;20117;-81
2022/01/31 01:26:13;;;;;;;35.60;12.63;;;3.50;99.90;;;;;;5095916;28;20134;-80
2022/01/31 01:28:39;;;;;;;23.70;11.48;;;3.50;99.90;;;;;;5108819;28;20039;-81
2022/01/31 01:31:05;;;;;;;22.60;12.27;;;3.50;99.90;;;;;;5090727;28;20039;-81
2022/01/31 01:33:37;;;;;;;20.38;10.77;;;3.50;99.90;;;;;;5110282;28;20040;-81
2022/01/31 01:36:04;;;;;;;26.60;14.45;;;3.60;99.90;;;;;;5094243;28;20509;-80
2022/01/31 01:38:30;;;;;;;30.40;13.85;;;3.40;99.90;;;;;;5090079;28;20047;-81
2022/01/31 01:40:59;;;;;;;27.00;13.25;;;3.40;99.90;;;;;;5089847;28;20535;-82
2022/01/31 01:43:25;;;;;;;16.17;10.98;;;3.30;99.90;;;;;;5105817;28;20046;-81
2022/01/31 01:45:54;;;;;;;26.60;13.13;;;3.30;99.90;;;;;;5106780;28;20051;-81
2022/01/31 01:48:20;;;;;;;18.95;11.02;;;3.30;99.90;;;;;;5095831;28;20056;-81
2022/01/31 01:50:46;;;;;;;16.52;10.00;;;3.30;99.90;;;;;;5101029;28;20402;-81
2022/01/31 01:53:12;;;;;;;18.00;9.23;;;3.30;99.90;;;;;;5100208;28;20189;-81
2022/01/31 01:55:38;;;;;;;21.80;10.00;;;3.20;99.90;;;;;;5089879;28;20109;-80
2022/01/31 01:58:06;;;;;;;16.13;11.52;;;3.20;99.90;;;;;;5089499;28;20047;-82
2022/01/31 02:00:49;;;;;;;14.68;8.95;;;3.20;99.90;;;;;;5089081;28;20055;-81
2022/01/31 02:03:15;;;;;;;19.08;9.85;;;3.20;99.90;;;;;;5075615;28;20051;-81
2022/01/31 02:05:41;;;;;;;14.07;9.38;;;3.20;99.90;;;;;;5080608;28;20044;-80
2022/01/31 02:08:07;;;;;;;18.40;10.30;;;3.20;99.90;;;;;;5097262;28;20089;-80
2022/01/31 02:10:32;;;;;;;13.30;9.38;;;3.20;99.90;;;;;;5099452;28;20043;-80
2022/01/31 02:13:03;;;;;;;21.10;11.00;;;3.30;99.90;;;;;;5090334;28;20136;-82
2022/01/31 02:15:29;;;;;;;16.05;10.50;;;3.30;99.90;;;;;;5088779;28;20131;-83
2022/01/31 02:17:54;;;;;;;20.88;11.63;;;3.30;99.90;;;;;;5074140;28;20131;-81
2022/01/31 02:20:20;;;;;;;18.73;10.23;;;3.40;99.90;;;;;;5089634;28;20406;-82
2022/01/31 02:22:46;;;;;;;12.55;9.50;;;3.40;99.90;;;;;;5082526;28;20052;-79
2022/01/31 02:25:12;;;;;;;17.80;10.35;;;3.50;99.90;;;;;;5091069;28;20480;-81
2022/01/31 02:27:38;;;;;;;20.02;10.80;;;3.50;99.90;;;;;;5110315;28;20047;-83
2022/01/31 02:30:07;;;;;;;23.42;10.20;;;3.50;99.90;;;;;;5106362;28;20074;-82
2022/01/31 02:32:33;;;;;;;18.05;9.30;;;3.60;99.90;;;;;;5109341;28;20031;-83
2022/01/31 02:34:59;;;;;;;23.60;10.50;;;3.70;99.90;;;;;;5080176;28;20090;-82
2022/01/31 02:37:25;;;;;;;20.80;10.00;;;3.60;99.90;;;;;;5090225;28;20067;-81
2022/01/31 02:39:50;;;;;;;16.52;7.82;;;3.70;99.90;;;;;;5095605;28;20405;-81
2022/01/31 02:42:16;;;;;;;19.77;8.98;;;3.80;99.90;;;;;;5096914;28;20506;-81
2022/01/31 02:44:46;;;;;;;14.15;9.10;;;3.70;99.90;;;;;;5091212;28;20106;-82
2022/01/31 02:47:21;;;;;;;14.95;7.88;;;3.80;99.90;;;;;;5092601;28;20429;-81
2022/01/31 02:49:52;;;;;;;13.25;7.47;;;3.80;99.90;;;;;;5096075;28;20119;-82
2022/01/31 02:52:18;;;;;;;21.05;9.65;;;4.00;99.90;;;;;;5098167;28;20086;-82
2022/01/31 02:54:44;;;;;;;19.92;8.50;;;4.10;99.90;;;;;;5097399;28;20076;-81
2022/01/31 02:57:10;;;;;;;23.17;8.75;;;4.20;99.90;;;;;;5094317;28;20051;-79
2022/01/31 02:59:36;;;;;;;17.92;7.63;;;4.30;99.90;;;;;;5079161;28;20036;-84
2022/01/31 03:02:02;;;;;;;29.60;9.23;;;4.30;99.90;;;;;;5095178;28;20398;-81
2022/01/31 03:04:28;;;;;;;19.77;7.13;;;4.50;99.90;;;;;;5097177;28;20089;-81
2022/01/31 03:06:55;;;;;;;29.23;7.32;;;4.60;99.90;;;;;;5097194;28;20048;-81
2022/01/31 03:09:21;;;;;;;29.10;7.57;;;4.80;99.90;;;;;;5081308;28;20040;-80
2022/01/31 03:11:47;;;;;;;29.30;7.25;;;5.00;99.90;;;;;;5089977;28;20078;-82
2022/01/31 03:14:15;;;;;;;28.25;6.28;;;5.10;99.90;;;;;;5100073;28;20531;-73
2022/01/31 03:16:42;;;;;;;40.30;8.48;;;5.30;99.90;;;;;;5101029;28;20039;-81
2022/01/31 03:19:08;;;;;;;41.85;7.82;;;5.40;99.90;;;;;;5100244;28;20048;-81
2022/01/31 03:21:34;;;;;;;36.03;8.23;;;5.50;99.90;;;;;;5103577;28;20043;-81
2022/01/31 03:23:59;;;;;;;41.17;7.32;;;5.60;99.90;;;;;;5085567;27;20166;-81
2022/01/31 03:26:25;;;;;;;31.00;7.45;;;5.70;99.90;;;;;;5126552;27;20047;-80
2022/01/31 03:28:53;;;;;;;29.65;6.72;;;5.60;99.90;;;;;;5097137;28;20048;-82
2022/01/31 03:31:18;;;;;;;36.67;8.95;;;5.70;99.90;;;;;;5086223;28;20044;-82
2022/01/31 03:33:48;;;;;;;41.33;6.95;;;5.70;99.90;;;;;;5095676;28;20118;-81
2022/01/31 03:36:14;;;;;;;40.78;6.78;;;5.60;99.90;;;;;;5097142;28;20040;-77
2022/01/31 03:38:41;;;;;;;24.83;6.40;;;5.70;99.90;;;;;;5117201;28;20149;-81
2022/01/31 03:41:12;;;;;;;32.45;6.45;;;5.70;99.90;;;;;;5078004;28;20390;-81
2022/01/31 03:43:37;;;;;;;27.50;6.22;;;5.60;99.90;;;;;;5097366;28;20089;-82
2022/01/31 03:46:04;;;;;;;31.63;5.53;;;5.70;99.90;;;;;;5096923;28;20507;-82
2022/01/31 03:48:30;;;;;;;25.70;5.70;;;5.70;99.90;;;;;;5102546;28;20371;-82
2022/01/31 03:50:56;;;;;;;30.77;6.22;;;5.80;99.90;;;;;;5111854;28;20055;-80
2022/01/31 03:53:22;;;;;;;18.95;4.47;;;5.70;99.90;;;;;;5116950;28;20062;-80
2022/01/31 03:55:47;;;;;;;24.02;5.10;;;5.70;99.90;;;;;;5107904;28;20043;-81
2022/01/31 03:58:13;;;;;;;20.50;3.20;;;5.70;99.90;;;;;;5094338;28;20043;-80
2022/01/31 04:00:39;;;;;;;25.58;4.35;;;5.60;99.90;;;;;;5091971;28;20040;-80
2022/01/31 04:03:05;;;;;;;13.90;3.90;;;5.50;99.90;;;;;;5092649;28;20406;-79
2022/01/31 04:05:33;;;;;;;9.45;2.30;;;5.50;99.90;;;;;;5092958;28;20044;-82
2022/01/31 04:07:59;;;;;;;18.70;3.83;;;5.30;99.90;;;;;;5109361;28;20043;-82
2022/01/31 04:10:26;;;;;;;13.10;3.28;;;5.20;99.90;;;;;;5107240;28;20111;-81
2022/01/31 04:12:52;;;;;;;24.15;5.63;;;5.20;99.90;;;;;;5104971;28;20047;-81
2022/01/31 04:15:18;;;;;;;20.90;4.25;;;5.30;99.90;;;;;;5111356;28;20032;-81
2022/01/31 04:17:44;;;;;;;19.88;4.47;;;5.30;99.90;;;;;;5098235;28;20047;-81
2022/01/31 04:20:10;;;;;;;18.85;3.80;;;5.30;99.90;;;;;;5094454;28;20036;-82
2022/01/31 04:22:44;;;;;;;24.70;5.40;;;5.40;99.90;;;;;;5099376;28;20043;-81
2022/01/31 04:25:27;;;;;;;29.27;5.13;;;5.30;99.90;;;;;;5092654;28;20048;-83
2022/01/31 04:28:01;;;;;;;21.45;6.72;;;5.30;99.90;;;;;;5091297;28;20044;-83
2022/01/31 04:30:27;;;;;;;33.15;5.95;;;5.30;99.90;;;;;;5099115;28;20043;-81
2022/01/31 04:32:52;;;;;;;27.98;5.82;;;5.30;99.90;;;;;;5092303;28;20051;-82
2022/01/31 04:35:18;;;;;;;26.15;5.68;;;5.20;99.90;;;;;;5112878;28;20495;-83
2022/01/31 04:37:43;;;;;;;27.77;6.03;;;5.30;99.90;;;;;;5095034;28;20118;-81
2022/01/31 04:40:13;;;;;;;24.90;4.93;;;5.20;99.90;;;;;;5089107;28;20512;-80
2022/01/31 04:42:42;;;;;;;19.25;4.65;;;5.20;99.90;;;;;;5074307;28;20056;-82
2022/01/31 04:45:08;;;;;;;12.40;3.83;;;5.20;99.90;;;;;;5084009;28;20048;-82
2022/01/31 04:47:34;;;;;;;14.10;2.80;;;5.10;99.90;;;;;;5090237;28;20074;-83
2022/01/31 04:49:59;;;;;;;21.70;5.22;;;5.10;99.90;;;;;;5072902;28;20052;-82
2022/01/31 04:52:25;;;;;;;24.23;4.82;;;5.10;99.90;;;;;;5113674;27;20054;-81
2022/01/31 04:54:50;;;;;;;29.35;4.93;;;5.20;99.90;;;;;;5114227;27;20036;-83
2022/01/31 04:57:17;;;;;;;13.20;2.67;;;5.00;99.90;;;;;;5093274;28;20051;-81
2022/01/31 04:59:43;;;;;;;9.88;1.92;;;5.00;99.90;;;;;;5091620;28;20075;-76
2022/01/31 05:02:09;;;;;;;2.17;0.43;;;4.70;99.90;;;;;;5090096;28;20036;-83
2022/01/31 05:04:35;;;;;;;5.45;1.42;;;4.80;99.90;;;;;;5056134;28;20036;-81
2022/01/31 05:07:01;;;;;;;7.15;1.95;;;4.70;99.90;;;;;;5106314;28;20046;-81
2022/01/31 05:09:26;;;;;;;7.25;1.27;;;4.60;99.90;;;;;;5111315;28;20036;-82
2022/01/31 05:11:52;;;;;;;4.47;1.50;;;4.60;99.90;;;;;;5076635;28;20509;-82
2022/01/31 05:14:18;;;;;;;11.63;2.65;;;4.60;99.90;;;;;;5090606;28;20040;-80
2022/01/31 05:16:44;;;;;;;17.90;2.22;;;4.60;99.90;;;;;;5093756;28;20122;-82
2022/01/31 05:19:09;;;;;;;11.85;2.33;;;4.60;99.90;;;;;;5107664;28;20036;-83
2022/01/31 05:21:35;;;;;;;19.08;3.28;;;4.70;99.90;;;;;;5109055;28;20481;-81
2022/01/31 05:24:02;;;;;;;21.52;4.10;;;4.60;99.90;;;;;;5110702;28;20062;-81
2022/01/31 05:26:27;;;;;;;15.90;3.42;;;4.60;99.90;;;;;;5110211;28;20108;-81
2022/01/31 05:28:53;;;;;;;15.27;3.58;;;4.60;99.90;;;;;;5109185;28;20047;-82
2022/01/31 05:31:19;;;;;;;25.10;4.13;;;4.60;99.90;;;;;;5086569;28;20578;-81
2022/01/31 05:33:45;;;;;;;18.88;2.65;;;4.60;99.90;;;;;;5081812;28;20048;-81
2022/01/31 05:36:11;;;;;;;28.30;3.88;;;4.60;99.90;;;;;;5072234;28;20083;-81
2022/01/31 05:38:39;;;;;;;18.73;3.75;;;4.60;99.90;;;;;;5090400;28;20406;-82
2022/01/31 05:41:08;;;;;;;27.90;5.20;;;4.70;99.90;;;;;;5077468;28;20071;-82
2022/01/31 05:43:34;;;;;;;19.70;3.75;;;4.80;99.90;;;;;;5089750;28;20406;-82
2022/01/31 05:45:59;;;;;;;19.85;3.47;;;4.70;99.90;;;;;;5087785;28;20063;-82
2022/01/31 05:48:25;;;;;;;35.90;3.35;;;4.70;99.90;;;;;;5095311;28;20040;-82
2022/01/31 05:50:51;;;;;;;19.88;3.33;;;4.70;99.90;;;;;;5072048;28;20048;-81
2022/01/31 05:53:17;;;;;;;23.13;2.78;;;4.70;99.90;;;;;;5089680;28;20059;-82
2022/01/31 05:55:44;;;;;;;15.95;4.53;;;4.70;99.90;;;;;;5094719;28;20047;-74
2022/01/31 05:58:10;;;;;;;25.15;4.22;;;4.70;99.90;;;;;;5109934;28;20114;-82
2022/01/31 06:00:37;;;;;;;23.33;3.03;;;4.70;99.90;;;;;;5104938;28;20173;-81
2022/01/31 06:03:04;;;;;;;24.35;3.65;;;4.70;99.90;;;;;;5089291;28;20048;-83
2022/01/31 06:05:29;;;;;;;24.25;4.47;;;4.80;99.90;;;;;;5072097;28;20040;-84
2022/01/31 06:07:55;;;;;;;29.15;6.93;;;4.90;99.90;;;;;;5088480;28;20494;-81
2022/01/31 06:10:24;;;;;;;22.33;2.65;;;4.80;99.90;;;;;;5090987;28;20397;-81
2022/01/31 06:12:52;;;;;;;21.75;3.03;;;5.00;99.90;;;;;;5092062;28;20044;-83
2022/01/31 06:15:18;;;;;;;12.80;3.00;;;4.90;99.90;;;;;;5089733;28;20044;-82
2022/01/31 06:17:44;;;;;;;25.65;4.43;;;5.00;99.90;;;;;;5094131;28;20063;-82
2022/01/31 06:20:09;;;;;;;21.55;3.75;;;5.00;99.90;;;;;;5089877;28;20482;-81
2022/01/31 06:22:42;;;;;;;11.82;2.85;;;5.00;99.90;;;;;;5106247;28;20084;-83
2022/01/31 06:25:08;;;;;;;18.92;3.53;;;5.00;99.90;;;;;;5109586;28;20040;-82
2022/01/31 06:27:34;;;;;;;14.00;3.55;;;5.00;99.90;;;;;;5109149;28;20047;-82
2022/01/31 06:29:59;;;;;;;20.42;4.53;;;5.00;99.90;;;;;;5089916;28;20674;-81
2022/01/31 06:32:26;;;;;;;21.20;3.88;;;5.00;99.90;;;;;;5089206;28;20127;-81
2022/01/31 06:34:53;;;;;;;25.67;3.72;;;4.90;99.90;;;;;;5089607;28;20086;-81
2022/01/31 06:37:18;;;;;;;25.48;4.70;;;5.00;99.90;;;;;;5080035;28;20091;-82
2022/01/31 06:39:44;;;;;;;19.13;3.92;;;5.00;99.90;;;;;;5089376;28;20082;-81
2022/01/31 06:42:10;;;;;;;14.68;2.47;;;5.00;99.90;;;;;;5093179;28;20123;-81
2022/01/31 06:44:37;;;;;;;10.52;2.90;;;5.00;99.90;;;;;;5085894;28;20067;-81
2022/01/31 06:47:03;;;;;;;13.35;2.83;;;4.90;99.90;;;;;;5103723;28;20062;-79
2022/01/31 06:49:28;;;;;;;17.20;4.18;;;4.90;99.90;;;;;;5068817;28;20040;-79
2022/01/31 06:51:54;;;;;;;12.63;3.42;;;5.00;99.90;;;;;;5085779;28;20051;-78
2022/01/31 06:54:19;;;;;;;16.88;2.42;;;4.90;99.90;;;;;;5093774;28;20520;-79
2022/01/31 06:56:45;;;;;;;21.50;3.03;;;4.90;99.90;;;;;;5097263;28;20127;-78
2022/01/31 06:59:11;;;;;;;18.83;4.18;;;4.80;99.90;;;;;;5094060;28;20125;-79
2022/01/31 07:01:36;;;;;;;19.70;3.65;;;4.90;99.90;;;;;;5083281;28;20081;-79
2022/01/31 07:04:02;;;;;;;22.65;3.67;;;4.90;99.90;;;;;;5094201;28;20104;-80
2022/01/31 07:06:28;;;;;;;17.90;3.42;;;4.90;99.90;;;;;;5093766;28;20085;-81
2022/01/31 07:08:53;;;;;;;26.98;5.18;;;4.80;99.90;;;;;;5095509;28;20486;-80
2022/01/31 07:11:23;;;;;;;20.33;4.30;;;4.80;99.90;;;;;;5104640;27;20094;-79
2022/01/31 07:13:53;;;;;;;24.88;5.20;;;4.90;99.90;;;;;;5092779;28;20051;-80
2022/01/31 07:16:19;;;;;;;26.83;3.78;;;5.00;99.90;;;;;;5092293;28;20036;-80
2022/01/31 07:18:45;;;;;;;18.25;4.85;;;5.10;99.90;;;;;;5092953;28;20047;-79
2022/01/31 07:21:14;;;;;;;30.05;6.15;;;5.00;99.90;;;;;;5093605;28;20402;-80
2022/01/31 07:24:02;;;;;;;28.02;5.47;;;5.00;99.90;;;;;;5058919;28;20127;-81
2022/01/31 07:26:25;;;;;;;22.60;4.35;;;5.10;99.90;;;;;;5111465;28;20589;-81
2022/01/31 07:28:50;;;;;;;16.60;3.45;;;5.10;99.90;;;;;;5096941;28;20101;-81
2022/01/31 07:31:16;;;;;;;18.45;3.13;;;5.20;99.90;;;;;;5097345;28;20534;-81
2022/01/31 07:33:43;;;;;;;25.05;6.45;;;5.30;99.90;;;;;;5086671;28;20036;-74
2022/01/31 07:36:08;;;;;;;22.65;5.60;;;5.30;99.90;;;;;;5106795;28;20113;-79
2022/01/31 07:38:34;;;;;;;29.33;6.40;;;5.30;99.90;;;;;;5097497;28;20382;-80
2022/01/31 07:41:00;;;;;;;29.33;5.80;;;5.30;99.90;;;;;;5092776;27;20119;-79
2022/01/31 07:43:26;;;;;;;34.38;7.63;;;5.30;99.90;;;;;;5091861;28;20596;-81
2022/01/31 07:45:51;;;;;;;53.13;7.35;;;5.40;99.90;;;;;;5071688;28;20060;-81
2022/01/31 07:48:17;;;;;;;25.10;6.30;;;5.50;99.90;;;;;;5102398;28;20090;-80
2022/01/31 07:50:42;;;;;;;27.73;3.97;;;5.60;99.90;;;;;;5102735;28;20068;-75
2022/01/31 07:53:09;;;;;;;32.67;7.03;;;5.60;99.90;;;;;;5092245;28;20047;-80
2022/01/31 07:55:35;;;;;;;27.70;6.05;;;5.60;99.90;;;;;;5096191;28;20035;-81
2022/01/31 07:58:01;;;;;;;34.65;5.45;;;5.70;99.90;;;;;;5079922;28;20150;-81
2022/01/31 08:00:27;;;;;;;21.02;5.95;;;5.70;99.90;;;;;;5090726;28;20104;-79
2022/01/31 08:02:53;;;;;;;44.00;6.88;;;5.70;99.90;;;;;;5090996;28;20490;-79
2022/01/31 08:05:21;;;;;;;29.95;6.75;;;5.80;99.90;;;;;;5091464;28;20067;-76
2022/01/31 08:07:47;;;;;;;23.85;4.35;;;5.80;99.90;;;;;;5093309;28;20156;-78
2022/01/31 08:10:13;;;;;;;28.55;5.20;;;5.80;99.90;;;;;;5111707;28;20050;-80
2022/01/31 08:12:41;;;;;;;16.63;5.38;;;5.70;99.90;;;;;;5110557;27;20489;-78
2022/01/31 08:15:09;;;;;;;17.48;3.47;;;5.80;99.90;;;;;;5095493;28;20543;-79
2022/01/31 08:17:34;;;;;;;19.08;3.45;;;5.80;99.90;;;;;;5110411;28;20055;-79
2022/01/31 08:20:00;;;;;;;24.42;4.95;;;5.80;99.90;;;;;;5109445;27;20035;-85
2022/01/31 08:22:26;;;;;;;16.80;3.60;;;5.90;99.90;;;;;;5097480;28;20047;-81
2022/01/31 08:24:51;;;;;;;25.55;4.63;;;5.80;99.90;;;;;;5089846;28;20043;-81
2022/01/31 08:27:17;;;;;;;13.88;3.83;;;5.90;99.90;;;;;;5095738;28;20478;-81
2022/01/31 08:29:43;;;;;;;20.45;3.90;;;5.80;99.90;;;;;;5071890;28;20063;-80
2022/01/31 08:32:17;;;;;;;26.65;3.92;;;5.90;99.90;;;;;;5074024;28;20050;-82
2022/01/31 08:37:27;;;;;;;37.60;4.55;;;5.90;99.90;;;;;;5076364;28;20047;-81
2022/01/31 08:39:53;;;;;;;19.98;3.53;;;6.00;99.90;;;;;;5109093;27;20039;-81
2022/01/31 08:42:19;;;;;;;18.60;3.80;;;6.00;99.90;;;;;;5101334;28;20409;-81
2022/01/31 08:44:47;;;;;;;11.32;2.85;;;6.00;99.90;;;;;;5091275;28;20528;-81
2022/01/31 08:47:13;;;;;;;12.63;2.63;;;6.00;99.90;;;;;;5105807;28;20083;-77
2022/01/31 08:49:39;;;;;;;14.25;4.03;;;6.10;99.90;;;;;;5109935;28;20151;-81
2022/01/31 08:52:05;;;;;;;17.88;2.88;;;6.00;99.90;;;;;;5095616;28;20039;-85
2022/01/31 08:54:30;;;;;;;16.95;2.95;;;6.10;99.90;;;;;;5099986;28;20115;-86
2022/01/31 08:56:57;;;;;;;23.98;2.13;;;6.00;99.90;;;;;;5073726;28;20732;-82
2022/01/31 08:59:25;;;;;;;25.30;4.15;;;5.90;99.90;;;;;;5092240;28;20177;-85
2022/01/31 09:02:13;;;;;;;8.15;1.50;;;6.10;99.90;;;;;;5107495;27;20048;-83
2022/01/31 09:04:48;;;;;;;10.65;2.00;;;6.00;99.90;;;;;;5111459;28;20384;-82
2022/01/31 09:07:19;;;;;;;6.88;1.40;;;5.90;99.90;;;;;;5074352;28;20043;-82
2022/01/31 09:09:50;;;;;;;20.92;2.90;;;6.00;99.90;;;;;;5095805;28;20046;-82
2022/01/31 09:12:17;;;;;;;11.43;2.38;;;6.00;99.90;;;;;;5088394;28;20048;-82
2022/01/31 09:14:43;;;;;;;8.95;1.88;;;6.10;99.90;;;;;;5110764;28;20118;-74
2022/01/31 09:17:09;;;;;;;17.63;3.30;;;6.20;99.90;;;;;;5110532;28;20032;-83
2022/01/31 09:19:35;;;;;;;13.55;3.13;;;6.20;99.90;;;;;;5076132;28;20094;-84
2022/01/31 09:22:01;;;;;;;5.10;1.42;;;6.20;99.90;;;;;;5095674;28;20036;-80
2022/01/31 09:24:28;;;;;;;6.30;1.00;;;6.20;99.90;;;;;;5091681;28;20073;-82
2022/01/31 09:26:53;;;;;;;5.85;0.65;;;6.20;99.90;;;;;;5087539;28;20043;-90
2022/01/31 09:29:19;;;;;;;5.95;1.92;;;6.20;99.90;;;;;;5092000;28;20043;-83
2022/01/31 09:31:45;;;;;;;7.95;1.27;;;6.20;99.90;;;;;;5110356;27;20040;-82
2022/01/31 09:34:11;;;;;;;7.97;1.52;;;6.20;99.90;;;;;;5105986;28;20032;-82
2022/01/31 09:36:37;;;;;;;16.38;2.25;;;6.10;99.90;;;;;;5082583;28;20044;-83
2022/01/31 09:39:04;;;;;;;10.07;1.70;;;6.20;99.90;;;;;;5091977;28;20105;-81
2022/01/31 09:41:32;;;;;;;13.02;2.92;;;6.30;99.90;;;;;;5083025;28;20047;-79
2022/01/31 09:44:09;;;;;;;7.70;1.60;;;6.30;99.90;;;;;;5086310;28;20047;-82
2022/01/31 09:49:17;;;;;;;15.63;2.50;;;6.40;99.90;;;;;;5099324;28;20057;-80
2022/01/31 09:51:43;;;;;;;9.80;1.92;;;6.40;99.90;;;;;;5109294;28;20073;-73
2022/01/31 09:54:10;;;;;;;12.32;1.42;;;6.40;99.90;;;;;;5108247;28;20031;-85
2022/01/31 09:56:39;;;;;;;15.98;3.60;;;6.50;99.90;;;;;;5104505;28;20058;-82
2022/01/31 09:59:07;;;;;;;8.38;3.67;;;6.70;99.90;;;;;;5111805;28;20040;-84
2022/01/31 10:01:41;;;;;;;22.75;2.22;;;6.70;99.90;;;;;;5122427;28;20098;-84
2022/01/31 10:04:24;;;;;;;12.82;1.83;;;6.70;99.90;;;;;;5103180;28;20089;-84
2022/01/31 10:07:05;;;;;;;12.73;2.25;;;6.80;99.90;;;;;;5110968;28;20447;-84
2022/01/31 10:09:49;;;;;;;18.05;2.60;;;6.90;99.90;;;;;;5109043;28;20039;-85
2022/01/31 10:17:58;;;;;;;16.08;2.65;;;6.90;99.90;;;;;;5088441;28;20084;-84
2022/01/31 10:20:31;;;;;;;19.98;3.58;;;7.00;99.90;;;;;;5079294;28;20055;-81
2022/01/31 10:23:13;;;;;;;16.95;4.80;;;7.10;99.90;;;;;;5093997;28;20088;-80
2022/01/31 10:25:39;;;;;;;17.52;3.88;;;7.20;99.90;;;;;;5101112;28;20125;-84
2022/01/31 10:28:16;;;;;;;10.77;3.17;;;7.00;99.90;;;;;;5078687;28;20101;-83
2022/01/31 10:30:44;;;;;;;12.77;2.95;;;6.90;99.90;;;;;;5096415;28;20409;-82
2022/01/31 10:33:10;;;;;;;13.95;2.75;;;7.00;99.90;;;;;;5096931;28;20131;-82
2022/01/31 10:35:39;;;;;;;18.98;4.20;;;7.00;99.90;;;;;;5106894;28;20035;-81
2022/01/31 10:38:11;;;;;;;13.10;2.75;;;7.10;99.90;;;;;;5123355;27;20480;-82
2022/01/31 10:54:10;;;;;;;;;;;7.10;99.90;;;;;;5094518;28;20653;-82
2022/01/31 10:56:48;;;;;;;23.88;3.90;;;7.20;99.90;;;;;;5113447;28;20068;-83
2022/01/31 10:59:29;;;;;;;12.93;2.83;;;7.30;99.90;;;;;;5105443;28;20043;-83
2022/01/31 11:01:58;;;;;;;22.27;4.90;;;7.30;99.90;;;;;;5116380;27;20440;-84
2022/01/31 11:04:28;;;;;;;11.30;1.77;;;7.30;99.90;;;;;;5115104;28;20170;-83
2022/01/31 11:06:58;;;;;;;;;;;7.30;99.90;;;;;;5116206;28;20047;-83
2022/01/31 11:09:24;;;;;;;13.52;2.38;;;7.30;99.90;;;;;;5117291;28;20335;-83
2022/01/31 11:11:50;;;;;;;9.13;1.92;;;7.40;99.90;;;;;;5119952;28;20039;-82
2022/01/31 11:14:17;;;;;;;12.63;3.40;;;7.40;99.90;;;;;;5115150;28;20437;-82
2022/01/31 11:16:45;;;;;;;10.18;1.80;;;7.40;99.90;;;;;;5113983;27;20131;-82
2022/01/31 11:19:12;;;;;;;15.85;1.60;;;7.50;99.90;;;;;;5107079;28;20547;-78
2022/01/31 11:21:44;;;;;;;14.55;2.33;;;7.50;99.90;;;;;;5104438;28;20032;-79
2022/01/31 11:24:29;;;;;;;32.97;3.42;;;7.50;99.90;;;;;;5109035;28;20043;-78
2022/01/31 11:27:08;;;;;;;12.15;3.97;;;7.50;99.90;;;;;;5113643;28;20050;-79
2022/01/31 11:29:37;;;;;;;22.42;2.80;;;7.60;99.90;;;;;;5077506;28;20050;-78
2022/01/31 11:32:04;;;;;;;18.45;3.35;;;7.80;99.90;;;;;;5077762;28;20193;-79
2022/01/31 11:34:30;;;;;;;23.40;4.90;;;7.80;99.90;;;;;;5092638;28;20637;-84
2022/01/31 11:36:56;;;;;;;15.77;3.58;;;7.90;99.90;;;;;;5075240;28;20447;-83
2022/01/31 11:39:22;;;;;;;9.23;1.77;;;8.00;99.90;;;;;;5093730;28;20040;-82
2022/01/31 11:42:01;;;;;;;10.23;1.92;;;7.90;99.90;;;;;;5112420;28;20063;-84
2022/01/31 11:44:49;;;;;;;11.27;2.08;;;7.80;99.90;;;;;;5101148;28;20059;-82
2022/01/31 11:47:19;;;;;;;8.93;2.85;;;7.90;99.90;;;;;;5103573;28;20051;-82
2022/01/31 11:49:47;;;;;;;14.23;1.95;;;8.00;99.90;;;;;;5097739;28;20039;-81
2022/01/31 11:52:16;;;;;;;11.93;1.75;;;8.10;99.90;;;;;;5098950;27;20116;-81
2022/01/31 11:55:00;;;;;;;18.50;3.47;;;8.20;99.90;;;;;;5096522;28;20044;-84
2022/01/31 11:57:29;;;;;;;12.68;2.45;;;8.20;99.90;;;;;;5100212;28;20068;-81
2022/01/31 12:00:12;;;;;;;9.52;1.95;;;8.00;99.90;;;;;;5073756;28;20072;-83
2022/01/31 12:02:45;;;;;;;14.88;4.07;;;7.90;99.90;;;;;;5092442;28;20047;-82
2022/01/31 12:05:18;;;;;;;14.15;3.35;;;8.00;99.90;;;;;;5092588;28;20052;-82
2022/01/31 12:07:46;;;;;;;11.95;2.22;;;8.30;99.90;;;;;;5103328;28;20067;-82
2022/01/31 12:10:23;;;;;;;14.25;2.13;;;8.40;99.90;;;;;;5112872;28;20088;-83
2022/01/31 12:24:11;;;;;;;12.95;3.00;;;8.10;99.90;;;;;;5094094;28;20047;-82
2022/01/31 12:26:39;;;;;;;19.90;4.13;;;8.00;99.90;;;;;;5075003;28;20071;-81
2022/01/31 12:29:10;;;;;;;18.63;3.65;;;8.00;99.90;;;;;;5073280;28;20060;-81
2022/01/31 12:32:03;;;;;;;11.65;2.33;;;7.80;99.90;;;;;;5102208;28;20628;-82
2022/01/31 12:34:29;;;;;;;15.13;3.28;;;7.80;99.90;;;;;;5088837;28;20051;-80
2022/01/31 12:36:57;;;;;;;25.33;3.83;;;7.80;99.90;;;;;;5102451;28;20127;-81
2022/01/31 12:39:29;;;;;;;14.82;2.40;;;7.80;99.90;;;;;;5091030;28;20032;-80
2022/01/31 12:42:03;;;;;;;10.65;2.55;;;7.90;99.90;;;;;;5097038;28;20057;-85
2022/01/31 12:44:32;;;;;;;22.38;4.35;;;7.80;99.90;;;;;;5111577;27;20043;-82
2022/01/31 12:47:20;;;;;;;19.60;3.35;;;7.80;99.90;;;;;;5140542;27;20055;-86
2022/01/31 12:50:21;;;;;;;18.40;2.67;;;7.90;99.90;;;;;;5132066;27;20143;-81
2022/01/31 12:52:47;;;;;;;31.63;3.50;;;7.90;99.90;;;;;;5129399;27;20039;-84
2022/01/31 12:55:13;;;;;;;26.83;4.45;;;7.90;99.90;;;;;;5092116;28;20394;-80
2022/01/31 12:57:50;;;;;;;18.60;3.28;;;7.80;99.90;;;;;;5092090;28;20079;-85
2022/01/31 13:00:16;;;;;;;17.98;4.57;;;7.80;99.90;;;;;;5090781;28;20050;-84
2022/01/31 13:02:48;;;;;;;14.88;4.03;;;7.80;99.90;;;;;;5091604;28;20048;-84
2022/01/31 13:05:14;;;;;;;21.00;4.38;;;7.90;99.90;;;;;;5090630;28;20087;-85
2022/01/31 13:07:40;;;;;;;20.13;4.63;;;7.80;99.90;;;;;;5091637;28;20083;-84
2022/01/31 13:10:10;;;;;;;24.45;4.43;;;7.80;99.90;;;;;;5072913;28;20036;-84
2022/01/31 13:12:36;;;;;;;30.85;4.43;;;7.70;99.90;;;;;;5092252;28;20048;-84
2022/01/31 13:15:03;;;;;;;20.08;3.85;;;7.60;99.90;;;;;;5098887;28;20124;-85
2022/01/31 13:17:29;;;;;;;30.05;4.82;;;7.50;99.90;;;;;;5093907;28;20064;-84
2022/01/31 13:19:57;;;;;;;23.13;3.97;;;7.50;99.90;;;;;;5096024;28;20495;-84
2022/01/31 13:22:35;;;;;;;41.58;6.35;;;7.50;99.90;;;;;;5092163;28;20044;-85
2022/01/31 13:25:08;;;;;;;43.97;7.00;;;7.50;99.90;;;;;;5105367;28;20094;-80
2022/01/31 13:27:39;;;;;;;30.85;6.07;;;7.60;99.90;;;;;;5103570;27;20047;-85